Weather at Francisco Airport

Public forecast

Using degrees Celsius for public forecast. Weather courtesy of forecast.io.

Closest aviation weather report (METAR) to Francisco Airport

Closest report is Ignacio Agramonte International Airport, 39.8 nm (73.8 km) NNW.

2024/05/19 07:50 (retrieved 56 minutes ago)

MUCM 190750Z 03003KT 7000 FEW030 24/23 Q1015

Closest aviation forecast (TAF) to Francisco Airport

Closest forecast is Ignacio Agramonte International Airport, 39.8 nm (73.8 km) NNW.

2024/05/19 06:07 (retrieved 3 hours ago)

TAF MUCM 190500Z 1906/2006 VRB04KT 9000 SCT020 TEMPO 1909/1912 1500 BR TEMPO 1921/1924 5000 RA FEW020TCU BKN020